Terminal Aerodrome Forecast
Issued by NWS Greer, SC

Home | Current Version | Previous Version | Text Only | Print | Product List | Glossary On
Versions: 1 2 3 4 5 6 7 8 9 10 11 12 13 14 15 16 17 18 19 20 21 22 23 24 25 26 27 28 29 30 31 32 33
000
FTUS42 KGSP 252320
TAFAVL
TAF
KAVL 252320Z 2600/2624 22003KT P6SM VCSH FEW060 SCT100
     FM260200 VRB02KT P6SM FEW200
     FM260500 VRB02KT 5SM BR SCT010
     FM260700 VRB02KT 3SM BR BKN008
      TEMPO 2609/2613 1SM BR BKN005
     FM261400 34004KT P6SM SCT045
     FM261800 23005KT P6SM BKN045 PROB30 2618/2624 4SM -TSRA
      OVC035CB=

USA.gov is the U.S. government's official web portal to all federal, state and local government web resources and services.